createdAt,value
2019-02-05T00:01:38.443Z,64.40
2019-02-05T00:05:18.630Z,64.20
2019-02-05T00:08:32.910Z,63.30
2019-02-05T00:11:04.354Z,63.90
2019-02-05T00:14:36.021Z,64.30
2019-02-05T00:20:24.484Z,64.00
2019-02-05T00:23:26.872Z,64.00
2019-02-05T00:26:06.436Z,64.80
2019-02-05T00:28:43.370Z,65.30
2019-02-05T00:31:20.891Z,64.70
2019-02-05T00:34:00.559Z,65.30
2019-02-05T00:37:36.600Z,65.20
2019-02-05T00:40:13.970Z,65.20
2019-02-05T00:42:48.841Z,65.30
2019-02-05T00:46:43.059Z,66.10
2019-02-05T00:49:33.967Z,65.40
2019-02-05T00:52:04.594Z,65.10
2019-02-05T00:54:39.233Z,65.90
2019-02-05T00:57:09.751Z,66.60
2019-02-05T00:59:43.435Z,66.90
2019-02-05T01:03:17.755Z,66.50
2019-02-05T01:10:05.167Z,66.70
2019-02-05T01:12:40.833Z,67.10
2019-02-05T01:16:04.129Z,66.10
2019-02-05T01:19:28.722Z,66.00
2019-02-05T01:23:06.406Z,65.60
2019-02-05T01:25:37.846Z,64.20
2019-02-05T01:28:45.336Z,64.60
2019-02-05T01:32:01.962Z,65.30
2019-02-05T01:35:06.175Z,66.10
2019-02-05T01:38:37.231Z,65.80
2019-02-05T01:41:14.018Z,64.90
2019-02-05T01:43:50.235Z,65.80
2019-02-05T01:47:31.575Z,65.20
2019-02-05T01:50:08.065Z,65.80
2019-02-05T01:56:22.103Z,65.10
2019-02-05T01:59:01.697Z,66.00
2019-02-05T02:01:36.122Z,65.40
2019-02-05T02:05:05.596Z,65.40
2019-02-05T02:11:55.038Z,65.20
2019-02-05T02:14:34.375Z,64.80
2019-02-05T02:17:09.493Z,65.10
2019-02-05T02:20:06.808Z,65.60
2019-02-05T02:23:17.963Z,65.20
2019-02-05T02:29:30.603Z,65.90
2019-02-05T02:32:06.045Z,65.50
2019-02-05T02:35:09.435Z,65.70
2019-02-05T02:38:41.220Z,65.90
2019-02-05T02:42:06.858Z,65.90
2019-02-05T02:45:07.372Z,65.70
2019-02-05T02:47:42.496Z,66.80
2019-02-05T02:50:16.291Z,66.20
2019-02-05T02:54:08.338Z,66.60
2019-02-05T02:57:35.427Z,66.70
2019-02-05T03:00:40.159Z,66.30
2019-02-05T03:03:17.376Z,65.70
2019-02-05T03:10:51.434Z,66.00
2019-02-05T03:14:02.268Z,66.00
2019-02-05T03:16:48.572Z,66.40
2019-02-05T03:19:21.491Z,66.80
2019-02-05T03:22:52.290Z,67.50
2019-02-05T03:26:30.676Z,67.20
2019-02-05T03:29:54.745Z,67.40
2019-02-05T03:32:27.708Z,67.40
2019-02-05T03:35:06.558Z,67.40
2019-02-05T03:38:49.429Z,67.30
2019-02-05T03:41:24.227Z,67.10
2019-02-05T03:44:29.664Z,67.20
2019-02-05T03:47:06.885Z,67.10
2019-02-05T03:49:42.510Z,67.20
2019-02-05T03:53:24.131Z,66.60
2019-02-05T03:57:04.936Z,66.70
2019-02-05T04:00:37.372Z,67.40
2019-02-05T04:03:55.987Z,67.30
2019-02-05T04:11:43.618Z,67.30
2019-02-05T04:22:00.102Z,66.50
2019-02-05T04:25:29.804Z,66.60
2019-02-05T04:32:51.719Z,66.70
2019-02-05T04:40:16.442Z,65.20
2019-02-05T04:43:54.395Z,66.00
2019-02-05T04:50:55.123Z,66.80
2019-02-05T04:58:27.091Z,66.60
2019-02-05T05:05:16.907Z,66.80
2019-02-05T05:12:15.768Z,67.60
2019-02-05T05:15:37.342Z,67.60
2019-02-05T05:18:09.860Z,67.40
2019-02-05T05:20:43.150Z,67.50
2019-02-05T05:23:16.402Z,67.00
2019-02-05T05:26:46.752Z,67.80
2019-02-05T05:30:25.817Z,68.40
2019-02-05T05:32:59.857Z,68.00
2019-02-05T05:35:41.867Z,67.90
2019-02-05T05:39:14.759Z,67.70
2019-02-05T05:42:39.933Z,67.00
2019-02-05T05:45:36.247Z,67.00
2019-02-05T05:48:12.294Z,67.00
2019-02-05T05:50:45.702Z,67.40
2019-02-05T05:54:06.711Z,67.40
2019-02-05T05:57:21.070Z,67.30
2019-02-05T06:00:55.664Z,67.10
2019-02-05T06:03:35.279Z,67.50
2019-02-05T06:06:06.281Z,67.90
2019-02-05T06:09:09.935Z,67.80
2019-02-05T06:15:35.724Z,67.50
2019-02-05T06:18:14.423Z,67.70
2019-02-05T06:20:52.058Z,68.40
2019-02-05T06:23:56.203Z,67.80
2019-02-05T06:26:55.225Z,68.10
2019-02-05T06:30:28.996Z,68.30
2019-02-05T06:33:50.696Z,68.00
2019-02-05T06:36:29.058Z,67.50
2019-02-05T06:39:56.853Z,67.70
2019-02-05T06:43:27.051Z,67.20
2019-02-05T06:46:54.285Z,67.30
2019-02-05T06:49:24.013Z,67.80
2019-02-05T06:51:58.663Z,67.70
2019-02-05T06:55:44.646Z,67.60
2019-02-05T06:58:47.028Z,67.60
2019-02-05T07:01:20.863Z,68.00
2019-02-05T07:04:15.464Z,67.90
2019-02-05T07:06:50.666Z,67.30
2019-02-05T07:09:41.916Z,67.40
2019-02-05T07:13:07.908Z,67.80
2019-02-05T07:16:23.542Z,67.70
2019-02-05T07:19:44.481Z,67.30
2019-02-05T07:22:13.894Z,67.30
2019-02-05T07:25:29.291Z,67.90
2019-02-05T07:29:19.322Z,68.20
2019-02-05T07:40:37.284Z,68.50
2019-02-05T07:44:13.822Z,68.30
2019-02-05T07:54:31.109Z,67.50
2019-02-05T07:57:43.043Z,67.70
2019-02-05T08:01:27.488Z,67.30
2019-02-05T08:08:49.388Z,67.10
2019-02-05T08:11:41.222Z,66.80
2019-02-05T08:18:11.037Z,67.70
2019-02-05T08:21:21.991Z,67.10
2019-02-05T08:23:59.939Z,67.10
2019-02-05T08:26:56.205Z,67.30
2019-02-05T08:29:34.426Z,67.60
2019-02-05T08:37:02.337Z,67.00
2019-02-05T08:44:40.040Z,65.30
2019-02-05T08:47:45.826Z,66.70
2019-02-05T08:51:04.364Z,66.20
2019-02-05T08:54:28.850Z,65.50
2019-02-05T08:57:30.677Z,65.50
2019-02-05T09:00:50.302Z,66.40
2019-02-05T09:08:00.795Z,65.30
2019-02-05T09:14:34.681Z,63.90
2019-02-05T09:18:04.469Z,64.20
2019-02-05T09:25:42.818Z,63.80
2019-02-05T09:42:51.168Z,62.70
2019-02-05T09:49:43.251Z,62.90
2019-02-05T09:53:13.573Z,62.20
2019-02-05T10:00:18.594Z,61.90
2019-02-05T10:03:47.661Z,61.90
2019-02-05T10:10:46.988Z,61.40
2019-02-05T10:17:21.582Z,59.70
2019-02-05T10:24:09.866Z,58.80
2019-02-05T10:31:00.794Z,59.10
2019-02-05T10:38:08.885Z,58.50
2019-02-05T10:41:18.206Z,58.70
2019-02-05T10:44:25.669Z,59.40
2019-02-05T10:47:39.400Z,59.00
2019-02-05T10:50:50.125Z,58.90
2019-02-05T10:54:04.362Z,59.40
2019-02-05T10:57:13.003Z,59.10
2019-02-05T11:00:25.264Z,57.60
2019-02-05T11:03:49.671Z,58.40
2019-02-05T11:07:14.360Z,58.80
2019-02-05T11:10:29.812Z,57.10
2019-02-05T11:13:31.908Z,56.90
2019-02-05T11:16:15.819Z,58.00
2019-02-05T11:19:05.360Z,57.00
2019-02-05T11:22:15.257Z,57.10
2019-02-05T11:25:47.586Z,56.40
2019-02-05T11:29:32.168Z,56.80
2019-02-05T11:32:45.077Z,57.30
2019-02-05T11:35:51.214Z,57.70
2019-02-05T11:38:34.291Z,57.90
2019-02-05T11:41:19.540Z,57.40
2019-02-05T11:43:58.945Z,57.60
2019-02-05T11:46:47.905Z,58.60
2019-02-05T12:01:05.406Z,56.60
2019-02-05T12:03:37.819Z,56.60
2019-02-05T12:07:01.235Z,54.90
2019-02-05T12:10:28.290Z,55.70
2019-02-05T12:20:38.055Z,56.80
2019-02-05T12:24:03.827Z,55.70
2019-02-05T12:27:11.862Z,55.90
2019-02-05T12:30:17.136Z,56.20
2019-02-05T12:33:12.569Z,56.00
2019-02-05T12:35:58.650Z,56.20
2019-02-05T12:38:28.770Z,56.20
2019-02-05T12:40:58.076Z,56.00
2019-02-05T12:43:27.305Z,56.20
2019-02-05T12:45:56.481Z,54.90
2019-02-05T12:48:25.914Z,55.70
2019-02-05T12:50:55.180Z,56.00
2019-02-05T12:53:25.361Z,56.20
2019-02-05T12:55:54.504Z,56.00
2019-02-05T12:58:25.550Z,55.70
2019-02-05T13:00:59.133Z,56.30
2019-02-05T13:03:26.008Z,56.70
2019-02-05T13:05:55.180Z,56.40
2019-02-05T13:08:24.316Z,57.00
2019-02-05T13:10:53.624Z,56.90
2019-02-05T13:13:22.762Z,56.90
2019-02-05T13:15:51.956Z,56.60
2019-02-05T13:18:21.430Z,56.10
2019-02-05T13:20:50.588Z,56.40
2019-02-05T13:23:20.768Z,56.50
2019-02-05T13:25:49.964Z,55.40
2019-02-05T13:28:20.443Z,55.70
2019-02-05T13:30:49.581Z,56.00
2019-02-05T13:33:19.091Z,56.20
2019-02-05T13:35:48.228Z,56.20
2019-02-05T13:38:17.356Z,56.60
2019-02-05T13:40:46.524Z,56.80
2019-02-05T13:43:15.639Z,56.70
2019-02-05T13:45:44.862Z,56.10
2019-02-05T13:48:15.432Z,56.40
2019-02-05T13:50:44.686Z,57.20
2019-02-05T13:53:13.925Z,56.70
2019-02-05T13:55:45.185Z,55.70
2019-02-05T13:58:14.910Z,56.30
2019-02-05T14:00:51.659Z,57.30
2019-02-05T14:03:20.789Z,57.00
2019-02-05T14:05:50.962Z,56.10
2019-02-05T14:08:24.475Z,56.80
2019-02-05T14:10:53.740Z,57.00
2019-02-05T14:13:24.956Z,57.10
2019-02-05T14:15:54.240Z,57.30
2019-02-05T14:18:23.412Z,57.20
2019-02-05T14:20:53.622Z,57.10
2019-02-05T14:23:22.867Z,56.30
2019-02-05T14:25:52.063Z,57.10
2019-02-05T14:28:22.240Z,57.50
2019-02-05T14:30:53.714Z,57.40
2019-02-05T14:33:23.559Z,57.40
2019-02-05T14:35:52.793Z,56.60
2019-02-05T14:38:21.873Z,56.20
2019-02-05T14:40:51.058Z,56.60
2019-02-05T14:43:20.150Z,56.00
2019-02-05T14:45:50.382Z,56.50
2019-02-05T14:48:19.715Z,56.60
2019-02-05T14:50:49.335Z,57.00
2019-02-05T14:53:20.522Z,56.80
2019-02-05T14:55:49.754Z,57.10
2019-02-05T14:58:19.510Z,57.30
2019-02-05T15:00:49.659Z,57.20
2019-02-05T15:03:18.859Z,57.10
2019-02-05T15:05:49.130Z,57.30
2019-02-05T15:08:19.407Z,57.40
2019-02-05T15:10:48.821Z,57.40
2019-02-05T15:13:19.272Z,57.80
2019-02-05T15:15:48.711Z,58.30
2019-02-05T15:18:21.201Z,58.00
2019-02-05T15:20:50.922Z,58.70
2019-02-05T15:23:20.686Z,58.90
2019-02-05T15:25:56.087Z,58.50
2019-02-05T15:28:25.195Z,58.20
2019-02-05T15:30:54.375Z,58.60
2019-02-05T15:33:49.756Z,58.90
2019-02-05T15:36:31.481Z,58.90
2019-02-05T15:39:01.075Z,59.00
2019-02-05T15:41:30.372Z,59.50
2019-02-05T15:44:00.871Z,59.50
2019-02-05T15:46:31.998Z,59.10
2019-02-05T15:49:02.108Z,59.60
2019-02-05T15:51:32.292Z,59.70
2019-02-05T15:54:01.589Z,59.80
2019-02-05T15:56:30.807Z,60.00
2019-02-05T15:58:59.890Z,60.10
2019-02-05T16:01:29.249Z,60.40
2019-02-05T16:03:58.476Z,60.10
2019-02-05T16:06:27.738Z,60.50
2019-02-05T16:08:56.949Z,60.60
2019-02-05T16:11:27.310Z,60.40
2019-02-05T16:13:56.982Z,60.90
2019-02-05T16:16:27.595Z,61.00
2019-02-05T16:18:56.772Z,61.20
2019-02-05T16:21:25.992Z,61.80
2019-02-05T16:23:58.011Z,61.70
2019-02-05T16:26:25.983Z,61.90
2019-02-05T16:28:55.083Z,61.80
2019-02-05T16:31:24.645Z,62.30
2019-02-05T16:33:53.921Z,62.40
2019-02-05T16:36:23.200Z,62.50
2019-02-05T16:38:52.293Z,62.70
2019-02-05T16:41:22.319Z,62.80
2019-02-05T16:43:51.391Z,63.40
2019-02-05T16:46:20.795Z,63.60
2019-02-05T16:48:49.856Z,63.10
2019-02-05T16:51:18.944Z,63.60
2019-02-05T16:53:48.019Z,63.60
2019-02-05T16:56:17.925Z,63.80
2019-02-05T16:58:47.254Z,63.80
2019-02-05T17:01:16.819Z,63.80
2019-02-05T17:03:47.995Z,63.70
2019-02-05T17:06:17.102Z,64.40
2019-02-05T17:08:46.397Z,64.40
2019-02-05T17:11:15.495Z,64.00
2019-02-05T17:13:44.587Z,64.00
2019-02-05T17:16:13.953Z,64.10
2019-02-05T17:18:43.031Z,64.40
2019-02-05T17:21:12.286Z,64.60
2019-02-05T17:23:41.455Z,65.00
2019-02-05T17:26:10.708Z,64.70
2019-02-05T17:28:39.853Z,64.90
2019-02-05T17:31:09.346Z,64.20
2019-02-05T17:33:38.504Z,64.20
2019-02-05T17:36:07.715Z,64.60
2019-02-05T17:38:36.831Z,65.10
2019-02-05T17:41:05.988Z,65.20
2019-02-05T17:43:35.069Z,64.70
2019-02-05T17:46:05.886Z,63.90
2019-02-05T17:48:35.142Z,65.00
2019-02-05T17:51:05.022Z,64.80
2019-02-05T17:53:34.078Z,64.90
2019-02-05T17:56:03.152Z,65.10
2019-02-05T17:58:32.340Z,64.80
2019-02-05T18:01:06.569Z,65.10
2019-02-05T18:03:35.635Z,65.10
2019-02-05T18:06:05.651Z,65.00
2019-02-05T18:08:35.735Z,65.10
2019-02-05T18:11:05.698Z,65.40
2019-02-05T18:13:34.779Z,65.10
2019-02-05T18:16:21.861Z,65.20
2019-02-05T18:18:50.949Z,65.20
2019-02-05T18:21:22.348Z,65.30
2019-02-05T18:23:51.503Z,64.40
2019-02-05T18:26:20.908Z,64.80
2019-02-05T18:28:49.984Z,65.30
2019-02-05T18:31:19.184Z,64.70
2019-02-05T18:33:50.388Z,64.80
2019-02-05T18:36:19.529Z,65.20
2019-02-05T18:38:48.704Z,65.60
2019-02-05T18:41:18.166Z,65.70
2019-02-05T18:43:47.276Z,66.00
2019-02-05T18:46:16.357Z,65.90
2019-02-05T18:48:45.445Z,65.90
2019-02-05T18:51:14.616Z,65.70
2019-02-05T18:53:43.967Z,66.30
2019-02-05T18:56:13.447Z,66.40
2019-02-05T18:58:42.531Z,66.60
2019-02-05T19:01:11.648Z,66.60
2019-02-05T19:03:40.749Z,66.50
2019-02-05T19:06:09.868Z,66.60
2019-02-05T19:08:38.947Z,67.10
2019-02-05T19:11:08.971Z,67.40
2019-02-05T19:13:38.091Z,67.60
2019-02-05T19:16:07.268Z,67.80
2019-02-05T19:18:36.367Z,67.50
2019-02-05T19:21:05.537Z,68.20
2019-02-05T19:23:34.600Z,67.60
2019-02-05T19:26:10.626Z,67.70
2019-02-05T19:28:41.149Z,67.70
2019-02-05T19:31:29.316Z,67.50
2019-02-05T19:33:58.487Z,67.50
2019-02-05T19:36:27.891Z,67.80
2019-02-05T19:38:57.121Z,67.90
2019-02-05T19:41:26.214Z,68.10
2019-02-05T19:43:55.331Z,68.20
2019-02-05T19:46:55.280Z,67.50
2019-02-05T19:49:49.572Z,67.50
2019-02-05T19:52:18.651Z,68.00
2019-02-05T19:54:47.924Z,67.80
2019-02-05T19:57:16.998Z,67.70
2019-02-05T19:59:47.466Z,68.20
2019-02-05T20:02:16.583Z,68.00
2019-02-05T20:04:45.687Z,68.40
2019-02-05T20:07:14.846Z,68.10
2019-02-05T20:09:45.039Z,67.90
2019-02-05T20:12:14.188Z,67.90
2019-02-05T20:14:43.843Z,68.30
2019-02-05T20:17:12.994Z,68.50
2019-02-05T20:19:42.701Z,69.20
2019-02-05T20:22:11.775Z,68.10
2019-02-05T20:24:40.848Z,68.70
2019-02-05T20:27:10.157Z,68.50
2019-02-05T20:29:39.251Z,68.90
2019-02-05T20:32:08.491Z,68.80
2019-02-05T20:34:37.577Z,68.80
2019-02-05T20:37:06.972Z,68.60
2019-02-05T20:39:36.178Z,68.20
2019-02-05T20:42:05.501Z,68.80
2019-02-05T20:44:34.748Z,68.80
2019-02-05T20:47:04.429Z,68.60
2019-02-05T20:49:33.560Z,69.20
2019-02-05T20:52:02.730Z,69.00
2019-02-05T20:54:31.848Z,69.20
2019-02-05T20:57:00.925Z,68.70
2019-02-05T20:59:30.486Z,68.80
2019-02-05T21:01:59.742Z,69.60
2019-02-05T21:04:29.224Z,69.40
2019-02-05T21:06:59.803Z,69.40
2019-02-05T21:09:29.092Z,68.90
2019-02-05T21:11:58.221Z,68.80
2019-02-05T21:14:27.439Z,69.00
2019-02-05T21:16:56.514Z,69.00
2019-02-05T21:19:25.611Z,69.00
2019-02-05T21:21:54.741Z,69.30
2019-02-05T21:24:24.052Z,69.60
2019-02-05T21:26:53.306Z,69.20
2019-02-05T21:29:22.630Z,68.40
2019-02-05T21:31:54.532Z,68.70
2019-02-05T21:34:23.725Z,69.10
2019-02-05T21:36:53.080Z,68.20
2019-02-05T21:39:22.180Z,68.70
2019-02-05T21:41:51.327Z,68.60
2019-02-05T21:44:20.404Z,68.70
2019-02-05T21:46:49.504Z,69.00
2019-02-05T21:49:18.639Z,69.00
2019-02-05T21:51:48.309Z,69.20
2019-02-05T21:54:17.751Z,69.10
2019-02-05T21:56:47.159Z,69.00
2019-02-05T21:59:16.532Z,68.90
2019-02-05T22:01:45.682Z,68.50
2019-02-05T22:04:26.372Z,68.50
2019-02-05T22:06:45.688Z,67.10
2019-02-05T22:09:15.180Z,67.70
2019-02-05T22:11:44.526Z,68.10
2019-02-05T22:14:14.787Z,68.70
2019-02-05T22:16:44.084Z,68.60
2019-02-05T22:19:13.691Z,68.70
2019-02-05T22:21:42.935Z,68.60
2019-02-05T22:24:12.064Z,68.50
2019-02-05T22:26:41.196Z,68.50
2019-02-05T22:29:10.572Z,68.70
2019-02-05T22:31:39.766Z,68.50
2019-02-05T22:34:09.250Z,68.90
2019-02-05T22:36:38.435Z,68.80
2019-02-05T22:39:09.955Z,68.90
2019-02-05T22:41:39.193Z,69.20
2019-02-05T22:44:08.351Z,69.50
2019-02-05T22:46:37.557Z,68.70
2019-02-05T22:49:06.746Z,68.80
2019-02-05T22:51:36.009Z,69.70
2019-02-05T22:54:05.768Z,70.30
2019-02-05T22:56:34.900Z,69.70
2019-02-05T22:59:06.448Z,69.20
2019-02-05T23:01:52.309Z,69.50
2019-02-05T23:04:50.567Z,69.20
2019-02-05T23:07:15.285Z,69.30
2019-02-05T23:10:13.486Z,69.10
2019-02-05T23:12:46.559Z,69.80
2019-02-05T23:15:24.486Z,70.10
2019-02-05T23:17:53.747Z,70.30
2019-02-05T23:20:24.229Z,69.50
2019-02-05T23:22:57.152Z,69.60
2019-02-05T23:25:26.064Z,70.00
2019-02-05T23:27:56.618Z,70.60
2019-02-05T23:30:30.083Z,70.20
2019-02-05T23:32:59.671Z,69.10
2019-02-05T23:35:32.242Z,70.00
2019-02-05T23:38:00.372Z,69.80
2019-02-05T23:40:30.612Z,69.90
2019-02-05T23:42:59.791Z,70.30
2019-02-05T23:45:28.971Z,70.20
2019-02-05T23:47:58.101Z,70.60
2019-02-05T23:50:27.664Z,70.50
2019-02-05T23:52:56.798Z,70.90
2019-02-05T23:55:25.990Z,70.80
2019-02-05T23:57:55.212Z,70.00
